Estancia Bella Vista, Argentina
Current Conditions -  °F | °C
As of 1:00 AM on Wednesday 26 Nov 2014 (Local Time) from SAZN Reporting Station
Clear Clear  
Wind Chill: 20°   Ceiling: Unl
Heat Index: 20°   Visibility: 6mi
Dew Point:   Wind: 6mph
Humidity: 28%   Direction: 250°WSW
Pressure: 29.91"   Gusts: NA
Location:  42.13°S, 64.69°W
Report Text: SAZN 260400Z 25005KT CAVOK 20/01 Q1013
Loading
Personal Weather Stations






























Interactive Weather Map New forecast layout! Learn more

10-Day Weather Forecast

Advertisements
Track Severe Weather on mobile